South Byron, Wisconsin
Current Conditions -  °F | °C
As of 8:53 AM on Thursday 23 Oct 2014 (Local Time) from KFLD Reporting Station
Scattered Clouds Scattered Clouds  
Wind Chill: 40°   Ceiling: Unl
Heat Index: 44°   Visibility: 10mi
Dew Point: 37°   Wind: 7mph
Humidity: 76%   Direction: 180°S
Pressure: 30.15"   Gusts: NA
Location:  43.6092°N, 88.5191°W
Report Text: KFLD 231353Z AUTO 18006KT 10SM SCT080 07/03 A3015 RMK AO2 SLP216 T00670028
Loading
Personal Weather Stations






























Interactive Weather Map
Tropical Storm Tracking
New forecast layout! Learn more

10-Day Weather Forecast

Advertisements
Track Severe Weather on mobile